sensor_id;sensor_type;location;lat;lon;timestamp;pressure;altitude;pressure_sealevel;temperature;humidity
45888;BME280;31595;51.418;7.572;2023-04-21T00:01:05;100135.53;;;11.48;66.38
45888;BME280;31595;51.418;7.572;2023-04-21T00:03:34;100133.41;;;11.45;66.21
45888;BME280;31595;51.418;7.572;2023-04-21T00:06:03;100131.59;;;11.49;65.99
45888;BME280;31595;51.418;7.572;2023-04-21T00:08:32;100121.59;;;11.48;66.21
45888;BME280;31595;51.418;7.572;2023-04-21T00:11:04;100126.84;;;11.49;66.84
45888;BME280;31595;51.418;7.572;2023-04-21T00:13:32;100118.47;;;11.49;66.90
45888;BME280;31595;51.418;7.572;2023-04-21T00:15:59;100120.78;;;11.47;66.98
45888;BME280;31595;51.418;7.572;2023-04-21T00:18:27;100121.09;;;11.46;66.78
45888;BME280;31595;51.418;7.572;2023-04-21T00:20:55;100109.63;;;11.47;67.38
45888;BME280;31595;51.418;7.572;2023-04-21T00:23:22;100112.22;;;11.52;66.90
45888;BME280;31595;51.418;7.572;2023-04-21T00:25:49;100105.81;;;11.52;66.96
45888;BME280;31595;51.418;7.572;2023-04-21T00:28:20;100112.22;;;11.52;66.93
45888;BME280;31595;51.418;7.572;2023-04-21T00:30:48;100098.13;;;11.49;67.21
45888;BME280;31595;51.418;7.572;2023-04-21T00:33:16;100103.72;;;11.49;67.00
45888;BME280;31595;51.418;7.572;2023-04-21T00:35:43;100094.00;;;11.46;67.58
45888;BME280;31595;51.418;7.572;2023-04-21T00:38:10;100096.00;;;11.46;67.28
45888;BME280;31595;51.418;7.572;2023-04-21T00:40:37;100104.84;;;11.48;67.34
45888;BME280;31595;51.418;7.572;2023-04-21T00:43:05;100096.97;;;11.50;67.44
45888;BME280;31595;51.418;7.572;2023-04-21T00:45:34;100102.56;;;11.50;67.00
45888;BME280;31595;51.418;7.572;2023-04-21T00:48:01;100099.59;;;11.46;66.63
45888;BME280;31595;51.418;7.572;2023-04-21T00:50:29;100101.56;;;11.46;66.95
45888;BME280;31595;51.418;7.572;2023-04-21T00:52:56;100101.88;;;11.44;67.00
45888;BME280;31595;51.418;7.572;2023-04-21T00:55:24;100092.38;;;11.45;66.85
45888;BME280;31595;51.418;7.572;2023-04-21T00:57:51;100090.72;;;11.44;67.02
45888;BME280;31595;51.418;7.572;2023-04-21T01:00:19;100097.97;;;11.45;67.05
45888;BME280;31595;51.418;7.572;2023-04-21T01:02:48;100101.25;;;11.38;67.51
45888;BME280;31595;51.418;7.572;2023-04-21T01:05:15;100100.75;;;11.36;67.57
45888;BME280;31595;51.418;7.572;2023-04-21T01:07:43;100100.91;;;11.40;67.29
45888;BME280;31595;51.418;7.572;2023-04-21T01:10:11;100092.88;;;11.38;67.48
45888;BME280;31595;51.418;7.572;2023-04-21T01:12:41;100102.75;;;11.36;68.30
45888;BME280;31595;51.418;7.572;2023-04-21T01:15:10;100088.94;;;11.31;68.38
45888;BME280;31595;51.418;7.572;2023-04-21T01:17:38;100085.53;;;11.34;68.14
45888;BME280;31595;51.418;7.572;2023-04-21T01:20:10;100088.63;;;11.32;68.50
45888;BME280;31595;51.418;7.572;2023-04-21T01:22:40;100091.41;;;11.32;68.31
45888;BME280;31595;51.418;7.572;2023-04-21T01:25:09;100090.13;;;11.30;67.87
45888;BME280;31595;51.418;7.572;2023-04-21T01:27:36;100085.84;;;11.32;68.17
45888;BME280;31595;51.418;7.572;2023-04-21T01:30:08;100090.13;;;11.30;68.38
45888;BME280;31595;51.418;7.572;2023-04-21T01:32:35;100090.94;;;11.30;68.83
45888;BME280;31595;51.418;7.572;2023-04-21T01:35:06;100095.34;;;11.23;68.88
45888;BME280;31595;51.418;7.572;2023-04-21T01:37:33;100087.31;;;11.21;68.97
45888;BME280;31595;51.418;7.572;2023-04-21T01:40:04;100092.25;;;11.24;68.56
45888;BME280;31595;51.418;7.572;2023-04-21T01:42:33;100081.91;;;11.25;69.12
45888;BME280;31595;51.418;7.572;2023-04-21T01:45:01;100078.78;;;11.26;68.78
45888;BME280;31595;51.418;7.572;2023-04-21T01:47:29;100067.63;;;11.26;69.47
45888;BME280;31595;51.418;7.572;2023-04-21T01:49:56;100052.03;;;11.25;68.98
45888;BME280;31595;51.418;7.572;2023-04-21T01:52:23;100067.78;;;11.21;68.65
45888;BME280;31595;51.418;7.572;2023-04-21T01:54:57;100068.94;;;11.20;68.92
45888;BME280;31595;51.418;7.572;2023-04-21T01:57:25;100070.56;;;11.21;69.52
45888;BME280;31595;51.418;7.572;2023-04-21T01:59:56;100071.06;;;11.23;68.88
45888;BME280;31595;51.418;7.572;2023-04-21T02:02:23;100089.47;;;11.15;69.51
45888;BME280;31595;51.418;7.572;2023-04-21T02:04:51;100085.38;;;11.13;69.52
45888;BME280;31595;51.418;7.572;2023-04-21T02:07:18;100071.44;;;11.13;69.01
45888;BME280;31595;51.418;7.572;2023-04-21T02:09:45;100073.53;;;11.16;69.04
45888;BME280;31595;51.418;7.572;2023-04-21T02:12:12;100071.91;;;11.15;69.73
45888;BME280;31595;51.418;7.572;2023-04-21T02:14:43;100084.69;;;11.16;69.13
45888;BME280;31595;51.418;7.572;2023-04-21T02:17:13;100093.56;;;11.09;69.75
45888;BME280;31595;51.418;7.572;2023-04-21T02:19:40;100086.31;;;11.08;68.88
45888;BME280;31595;51.418;7.572;2023-04-21T02:22:07;100073.88;;;11.14;68.59
45888;BME280;31595;51.418;7.572;2023-04-21T02:24:37;100058.94;;;11.10;68.72
45888;BME280;31595;51.418;7.572;2023-04-21T02:27:04;100054.22;;;11.11;69.63
45888;BME280;31595;51.418;7.572;2023-04-21T02:29:32;100043.06;;;11.11;69.18
45888;BME280;31595;51.418;7.572;2023-04-21T02:32:01;100048.78;;;11.06;69.51
45888;BME280;31595;51.418;7.572;2023-04-21T02:34:32;100076.34;;;11.07;69.94
45888;BME280;31595;51.418;7.572;2023-04-21T02:36:59;100087.97;;;11.01;69.58
45888;BME280;31595;51.418;7.572;2023-04-21T02:39:27;100078.63;;;10.88;69.49
45888;BME280;31595;51.418;7.572;2023-04-21T02:41:54;100070.22;;;10.79;69.76
45888;BME280;31595;51.418;7.572;2023-04-21T02:44:22;100035.00;;;10.74;71.29
45888;BME280;31595;51.418;7.572;2023-04-21T02:46:49;100063.66;;;10.75;71.12
45888;BME280;31595;51.418;7.572;2023-04-21T02:49:18;100081.22;;;10.75;70.95
45888;BME280;31595;51.418;7.572;2023-04-21T02:51:45;100075.28;;;10.68;70.99
45888;BME280;31595;51.418;7.572;2023-04-21T02:54:12;100064.50;;;10.67;70.87
45888;BME280;31595;51.418;7.572;2023-04-21T02:56:40;100047.94;;;10.70;71.10
45888;BME280;31595;51.418;7.572;2023-04-21T02:59:07;100050.41;;;10.72;71.95
45888;BME280;31595;51.418;7.572;2023-04-21T03:01:36;100065.31;;;10.76;71.30
45888;BME280;31595;51.418;7.572;2023-04-21T03:04:03;100078.94;;;10.77;71.33
45888;BME280;31595;51.418;7.572;2023-04-21T03:06:34;100065.00;;;10.69;71.84
45888;BME280;31595;51.418;7.572;2023-04-21T03:09:01;100072.00;;;10.66;71.54
45888;BME280;31595;51.418;7.572;2023-04-21T03:11:29;100069.91;;;10.72;71.56
45888;BME280;31595;51.418;7.572;2023-04-21T03:13:56;100062.03;;;10.74;71.23
45888;BME280;31595;51.418;7.572;2023-04-21T03:16:23;100062.22;;;10.77;70.93
45888;BME280;31595;51.418;7.572;2023-04-21T03:18:51;100065.63;;;10.74;71.53
45888;BME280;31595;51.418;7.572;2023-04-21T03:21:18;100067.78;;;10.69;71.79
45888;BME280;31595;51.418;7.572;2023-04-21T03:23:47;100059.75;;;10.76;71.95
45888;BME280;31595;51.418;7.572;2023-04-21T03:26:14;100066.63;;;10.79;71.80
45888;BME280;31595;51.418;7.572;2023-04-21T03:28:41;100068.78;;;10.82;71.78
45888;BME280;31595;51.418;7.572;2023-04-21T03:31:08;100070.22;;;10.79;71.75
45888;BME280;31595;51.418;7.572;2023-04-21T03:33:36;100070.22;;;10.79;71.10
45888;BME280;31595;51.418;7.572;2023-04-21T03:36:03;100070.09;;;10.84;71.97
45888;BME280;31595;51.418;7.572;2023-04-21T03:38:31;100057.78;;;10.76;71.22
45888;BME280;31595;51.418;7.572;2023-04-21T03:40:59;100063.03;;;10.78;71.51
45888;BME280;31595;51.418;7.572;2023-04-21T03:43:27;100066.31;;;10.80;71.23
45888;BME280;31595;51.418;7.572;2023-04-21T03:45:54;100065.00;;;10.77;71.45
45888;BME280;31595;51.418;7.572;2023-04-21T03:48:22;100064.34;;;10.81;71.39
45888;BME280;31595;51.418;7.572;2023-04-21T03:50:49;100070.41;;;10.83;71.18
45888;BME280;31595;51.418;7.572;2023-04-21T03:53:19;100068.59;;;10.78;71.37
45888;BME280;31595;51.418;7.572;2023-04-21T03:55:48;100069.59;;;10.82;71.53
45888;BME280;31595;51.418;7.572;2023-04-21T03:58:17;100072.56;;;10.86;72.05
45888;BME280;31595;51.418;7.572;2023-04-21T04:00:44;100060.75;;;10.89;72.02
45888;BME280;31595;51.418;7.572;2023-04-21T04:03:11;100066.81;;;10.91;70.98
45888;BME280;31595;51.418;7.572;2023-04-21T04:05:39;100063.72;;;10.92;71.88
45888;BME280;31595;51.418;7.572;2023-04-21T04:08:06;100063.03;;;10.95;71.62
45888;BME280;31595;51.418;7.572;2023-04-21T04:10:33;100054.19;;;11.02;71.87
45888;BME280;31595;51.418;7.572;2023-04-21T04:13:00;100060.25;;;11.04;71.86
45888;BME280;31595;51.418;7.572;2023-04-21T04:15:30;100059.59;;;11.07;71.33
45888;BME280;31595;51.418;7.572;2023-04-21T04:17:57;100059.25;;;10.91;70.78
45888;BME280;31595;51.418;7.572;2023-04-21T04:20:24;100052.38;;;10.97;71.08
45888;BME280;31595;51.418;7.572;2023-04-21T04:22:52;100051.56;;;11.06;71.04
45888;BME280;31595;51.418;7.572;2023-04-21T04:25:19;100059.25;;;11.00;70.37
45888;BME280;31595;51.418;7.572;2023-04-21T04:27:46;100057.47;;;10.95;71.04
45888;BME280;31595;51.418;7.572;2023-04-21T04:30:15;100058.13;;;10.92;70.90
45888;BME280;31595;51.418;7.572;2023-04-21T04:32:44;100065.50;;;10.88;70.58
45888;BME280;31595;51.418;7.572;2023-04-21T04:35:11;100056.16;;;10.84;70.46
45888;BME280;31595;51.418;7.572;2023-04-21T04:37:40;100062.84;;;10.74;71.00
45888;BME280;31595;51.418;7.572;2023-04-21T04:40:07;100063.84;;;10.79;71.24
45888;BME280;31595;51.418;7.572;2023-04-21T04:42:37;100070.59;;;10.86;70.76
45888;BME280;31595;51.418;7.572;2023-04-21T04:45:06;100061.25;;;10.91;71.17
45888;BME280;31595;51.418;7.572;2023-04-21T04:47:34;100050.41;;;10.89;71.47
45888;BME280;31595;51.418;7.572;2023-04-21T04:50:03;100050.91;;;10.91;70.78
45888;BME280;31595;51.418;7.572;2023-04-21T04:52:30;100047.47;;;10.94;71.74
45888;BME280;31595;51.418;7.572;2023-04-21T04:54:58;100055.84;;;11.03;71.74
45888;BME280;31595;51.418;7.572;2023-04-21T04:57:25;100057.63;;;11.08;71.07
45888;BME280;31595;51.418;7.572;2023-04-21T04:59:53;100062.72;;;11.06;71.15
45888;BME280;31595;51.418;7.572;2023-04-21T05:02:21;100059.94;;;11.06;71.18
45888;BME280;31595;51.418;7.572;2023-04-21T05:04:49;100059.94;;;11.06;71.60
45888;BME280;31595;51.418;7.572;2023-04-21T05:07:18;100064.03;;;11.08;71.93
45888;BME280;31595;51.418;7.572;2023-04-21T05:09:45;100065.84;;;11.13;71.69
45888;BME280;31595;51.418;7.572;2023-04-21T05:12:12;100062.38;;;11.16;71.50
45888;BME280;31595;51.418;7.572;2023-04-21T05:14:40;100064.00;;;11.17;71.59
45888;BME280;31595;51.418;7.572;2023-04-21T05:17:07;100065.00;;;11.21;70.83
45888;BME280;31595;51.418;7.572;2023-04-21T05:19:34;100056.47;;;11.26;70.80
45888;BME280;31595;51.418;7.572;2023-04-21T05:22:02;100056.97;;;11.28;71.16
45888;BME280;31595;51.418;7.572;2023-04-21T05:24:32;100055.97;;;11.33;70.88
45888;BME280;31595;51.418;7.572;2023-04-21T05:27:00;100062.06;;;11.35;71.05
45888;BME280;31595;51.418;7.572;2023-04-21T05:29:28;100073.38;;;11.38;71.26
45888;BME280;31595;51.418;7.572;2023-04-21T05:31:55;100069.41;;;11.40;70.63
45888;BME280;31595;51.418;7.572;2023-04-21T05:34:23;100079.94;;;11.43;70.67
45888;BME280;31595;51.418;7.572;2023-04-21T05:36:50;100076.31;;;11.51;71.09
45888;BME280;31595;51.418;7.572;2023-04-21T05:39:18;100073.16;;;11.52;70.55
45888;BME280;31595;51.418;7.572;2023-04-21T05:41:47;100072.00;;;11.62;70.31
45888;BME280;31595;51.418;7.572;2023-04-21T05:44:16;100083.97;;;11.71;70.25
45888;BME280;31595;51.418;7.572;2023-04-21T05:46:43;100072.00;;;11.71;70.17
45888;BME280;31595;51.418;7.572;2023-04-21T05:49:10;100080.19;;;11.76;70.22
45888;BME280;31595;51.418;7.572;2023-04-21T05:51:38;100081.63;;;11.82;70.24
45888;BME280;31595;51.418;7.572;2023-04-21T05:54:05;100081.47;;;11.87;70.03
45888;BME280;31595;51.418;7.572;2023-04-21T05:56:32;100077.06;;;11.95;69.98
45888;BME280;31595;51.418;7.572;2023-04-21T05:59:01;100071.09;;;12.05;69.87
45888;BME280;31595;51.418;7.572;2023-04-21T06:01:28;100065.50;;;12.14;69.78
45888;BME280;31595;51.418;7.572;2023-04-21T06:03:56;100066.41;;;12.27;69.35
45888;BME280;31595;51.418;7.572;2023-04-21T06:06:24;100060.47;;;12.37;68.96
45888;BME280;31595;51.418;7.572;2023-04-21T06:08:52;100067.00;;;12.41;69.01
45888;BME280;31595;51.418;7.572;2023-04-21T06:11:19;100064.22;;;12.41;68.71
45888;BME280;31595;51.418;7.572;2023-04-21T06:13:47;100063.03;;;12.42;68.86
45888;BME280;31595;51.418;7.572;2023-04-21T06:16:15;100060.53;;;12.49;68.18
45888;BME280;31595;51.418;7.572;2023-04-21T06:18:43;100056.59;;;12.50;67.87
45888;BME280;31595;51.418;7.572;2023-04-21T06:21:10;100055.09;;;12.53;68.05
45888;BME280;31595;51.418;7.572;2023-04-21T06:23:37;100049.44;;;12.62;67.75
45888;BME280;31595;51.418;7.572;2023-04-21T06:26:05;100055.19;;;12.65;67.87
45888;BME280;31595;51.418;7.572;2023-04-21T06:28:34;100052.31;;;12.74;67.21
45888;BME280;31595;51.418;7.572;2023-04-21T06:31:04;100052.63;;;12.81;66.97
45888;BME280;31595;51.418;7.572;2023-04-21T06:33:33;100043.88;;;13.04;66.46
45888;BME280;31595;51.418;7.572;2023-04-21T06:36:00;100056.06;;;13.20;66.39
45888;BME280;31595;51.418;7.572;2023-04-21T06:38:27;100059.91;;;13.36;67.14
45888;BME280;31595;51.418;7.572;2023-04-21T06:40:54;100065.00;;;13.55;65.41
45888;BME280;31595;51.418;7.572;2023-04-21T06:43:22;100052.66;;;13.69;65.52
45888;BME280;31595;51.418;7.572;2023-04-21T06:45:49;100057.97;;;13.83;65.22
45888;BME280;31595;51.418;7.572;2023-04-21T06:48:16;100064.63;;;14.02;64.08
45888;BME280;31595;51.418;7.572;2023-04-21T06:50:45;100061.97;;;14.06;64.95
45888;BME280;31595;51.418;7.572;2023-04-21T06:53:12;100064.09;;;14.21;63.24
45888;BME280;31595;51.418;7.572;2023-04-21T06:55:40;100054.66;;;14.26;63.55
45888;BME280;31595;51.418;7.572;2023-04-21T06:58:08;100057.78;;;14.37;63.40
45888;BME280;31595;51.418;7.572;2023-04-21T07:00:36;100060.59;;;14.37;63.82
45888;BME280;31595;51.418;7.572;2023-04-21T07:03:03;100047.06;;;14.51;63.29
45888;BME280;31595;51.418;7.572;2023-04-21T07:05:31;100055.25;;;14.56;62.42
45888;BME280;31595;51.418;7.572;2023-04-21T07:08:00;100051.28;;;14.57;62.70
45888;BME280;31595;51.418;7.572;2023-04-21T07:10:27;100049.41;;;14.61;63.08
45888;BME280;31595;51.418;7.572;2023-04-21T07:12:55;100053.38;;;14.60;62.71
45888;BME280;31595;51.418;7.572;2023-04-21T07:15:22;100054.31;;;14.65;61.69
45888;BME280;31595;51.418;7.572;2023-04-21T07:17:49;100046.34;;;14.54;62.52
45888;BME280;31595;51.418;7.572;2023-04-21T07:20:17;100043.09;;;14.65;63.44
45888;BME280;31595;51.418;7.572;2023-04-21T07:22:44;100039.53;;;14.80;62.31
45888;BME280;31595;51.418;7.572;2023-04-21T07:25:13;100040.47;;;14.84;63.14
45888;BME280;31595;51.418;7.572;2023-04-21T07:27:40;100043.13;;;14.93;63.00
45888;BME280;31595;51.418;7.572;2023-04-21T07:30:08;100047.25;;;14.83;61.52
45888;BME280;31595;51.418;7.572;2023-04-21T07:32:35;100052.63;;;14.88;61.85
45888;BME280;31595;51.418;7.572;2023-04-21T07:35:04;100054.16;;;14.86;61.91
45888;BME280;31595;51.418;7.572;2023-04-21T07:37:31;100031.84;;;14.89;63.06
45888;BME280;31595;51.418;7.572;2023-04-21T07:39:58;100046.63;;;15.02;61.74
45888;BME280;31595;51.418;7.572;2023-04-21T07:42:27;100049.28;;;15.11;61.62
45888;BME280;31595;51.418;7.572;2023-04-21T07:44:54;100048.34;;;15.19;61.39
45888;BME280;31595;51.418;7.572;2023-04-21T07:47:22;100045.47;;;15.31;61.95
45888;BME280;31595;51.418;7.572;2023-04-21T07:49:49;100040.75;;;15.48;60.54
45888;BME280;31595;51.418;7.572;2023-04-21T07:52:17;100047.44;;;15.59;60.07
45888;BME280;31595;51.418;7.572;2023-04-21T07:54:44;100044.09;;;15.53;60.15
45888;BME280;31595;51.418;7.572;2023-04-21T07:57:11;100036.34;;;15.62;59.89
45888;BME280;31595;51.418;7.572;2023-04-21T07:59:40;100035.84;;;15.73;60.32
45888;BME280;31595;51.418;7.572;2023-04-21T08:02:07;100028.22;;;15.73;59.92
45888;BME280;31595;51.418;7.572;2023-04-21T08:04:35;100028.91;;;15.70;60.12
45888;BME280;31595;51.418;7.572;2023-04-21T08:07:02;100037.19;;;15.79;59.99
45888;BME280;31595;51.418;7.572;2023-04-21T08:09:29;100042.03;;;15.66;59.12
45888;BME280;31595;51.418;7.572;2023-04-21T08:11:57;100045.16;;;15.49;60.60
45888;BME280;31595;51.418;7.572;2023-04-21T08:14:24;100045.03;;;15.29;60.77
45888;BME280;31595;51.418;7.572;2023-04-21T08:16:53;100039.91;;;15.19;60.19
45888;BME280;31595;51.418;7.572;2023-04-21T08:19:20;100037.41;;;15.01;60.67
45888;BME280;31595;51.418;7.572;2023-04-21T08:21:48;100041.13;;;15.06;62.18
45888;BME280;31595;51.418;7.572;2023-04-21T08:24:15;100042.56;;;14.99;61.88
45888;BME280;31595;51.418;7.572;2023-04-21T08:26:42;100046.09;;;14.84;61.06
45888;BME280;31595;51.418;7.572;2023-04-21T08:29:09;100051.50;;;14.65;61.31
45888;BME280;31595;51.418;7.572;2023-04-21T08:31:38;100048.91;;;14.47;62.10
45888;BME280;31595;51.418;7.572;2023-04-21T08:34:07;100042.97;;;14.36;63.59
45888;BME280;31595;51.418;7.572;2023-04-21T08:36:34;100053.59;;;14.43;63.72
45888;BME280;31595;51.418;7.572;2023-04-21T08:39:01;100047.75;;;14.36;64.20
45888;BME280;31595;51.418;7.572;2023-04-21T08:41:29;100055.22;;;14.44;62.94
45888;BME280;31595;51.418;7.572;2023-04-21T08:43:56;100056.72;;;14.41;63.03
45888;BME280;31595;51.418;7.572;2023-04-21T08:46:23;100053.81;;;14.38;63.58
45888;BME280;31595;51.418;7.572;2023-04-21T08:48:52;100062.13;;;14.34;64.09
45888;BME280;31595;51.418;7.572;2023-04-21T08:51:22;100069.34;;;14.35;63.31
45888;BME280;31595;51.418;7.572;2023-04-21T08:53:50;100060.34;;;14.42;64.25
45888;BME280;31595;51.418;7.572;2023-04-21T08:56:17;100060.94;;;14.48;64.46
45888;BME280;31595;51.418;7.572;2023-04-21T08:58:44;100065.38;;;14.61;63.95
45888;BME280;31595;51.418;7.572;2023-04-21T09:01:11;100053.81;;;14.75;63.53
45888;BME280;31595;51.418;7.572;2023-04-21T09:03:39;100052.16;;;14.86;63.96
45888;BME280;31595;51.418;7.572;2023-04-21T09:06:07;100060.88;;;14.97;62.51
45888;BME280;31595;51.418;7.572;2023-04-21T09:08:41;100050.72;;;15.05;62.55
45888;BME280;31595;51.418;7.572;2023-04-21T09:11:12;100055.69;;;15.23;62.23
45888;BME280;31595;51.418;7.572;2023-04-21T09:13:41;100053.41;;;15.41;61.38
45888;BME280;31595;51.418;7.572;2023-04-21T09:16:14;100048.03;;;15.65;62.07
45888;BME280;31595;51.418;7.572;2023-04-21T09:18:43;100050.69;;;15.73;61.17
45888;BME280;31595;51.418;7.572;2023-04-21T09:21:12;100048.63;;;15.86;60.40
45888;BME280;31595;51.418;7.572;2023-04-21T09:23:47;100047.34;;;15.83;59.93
45888;BME280;31595;51.418;7.572;2023-04-21T09:26:16;100055.50;;;15.89;59.98
45888;BME280;31595;51.418;7.572;2023-04-21T09:28:44;100060.88;;;15.94;60.06
45888;BME280;31595;51.418;7.572;2023-04-21T09:31:13;100058.88;;;15.94;58.82
45888;BME280;31595;51.418;7.572;2023-04-21T09:33:46;100046.72;;;15.90;60.31
45888;BME280;31595;51.418;7.572;2023-04-21T09:36:20;100051.34;;;15.98;59.50
45888;BME280;31595;51.418;7.572;2023-04-21T09:38:56;100056.22;;;16.01;60.50
45888;BME280;31595;51.418;7.572;2023-04-21T09:41:24;100047.00;;;16.01;59.72
45888;BME280;31595;51.418;7.572;2023-04-21T09:43:51;100048.63;;;16.02;60.52
45888;BME280;31595;51.418;7.572;2023-04-21T09:46:19;100047.72;;;16.14;59.44
45888;BME280;31595;51.418;7.572;2023-04-21T09:48:47;100037.09;;;16.23;59.40
45888;BME280;31595;51.418;7.572;2023-04-21T09:51:16;100037.31;;;16.30;59.28
45888;BME280;31595;51.418;7.572;2023-04-21T09:53:44;100048.06;;;16.44;58.62
45888;BME280;31595;51.418;7.572;2023-04-21T09:56:14;100034.72;;;16.57;59.03
45888;BME280;31595;51.418;7.572;2023-04-21T09:58:45;100035.19;;;16.94;58.37
45888;BME280;31595;51.418;7.572;2023-04-21T10:01:14;100028.91;;;17.20;57.51
45888;BME280;31595;51.418;7.572;2023-04-21T10:03:43;100040.19;;;17.20;57.54
45888;BME280;31595;51.418;7.572;2023-04-21T10:06:11;100023.22;;;17.79;56.91
45888;BME280;31595;51.418;7.572;2023-04-21T10:08:40;100012.84;;;18.82;54.67
45888;BME280;31595;51.418;7.572;2023-04-21T10:11:08;100009.38;;;20.50;50.53
45888;BME280;31595;51.418;7.572;2023-04-21T10:13:38;100021.69;;;20.79;49.68
45888;BME280;31595;51.418;7.572;2023-04-21T10:16:07;100017.97;;;21.41;48.71
45888;BME280;31595;51.418;7.572;2023-04-21T10:18:36;100013.59;;;23.01;45.96
45888;BME280;31595;51.418;7.572;2023-04-21T10:21:05;100007.97;;;22.73;45.95
45888;BME280;31595;51.418;7.572;2023-04-21T10:23:37;100009.94;;;22.90;43.10
45888;BME280;31595;51.418;7.572;2023-04-21T10:26:09;100005.34;;;23.32;42.67
45888;BME280;31595;51.418;7.572;2023-04-21T10:28:57;99998.56;;;23.85;41.20
45888;BME280;31595;51.418;7.572;2023-04-21T10:31:31;100008.44;;;23.63;40.78
45888;BME280;31595;51.418;7.572;2023-04-21T10:34:27;100016.44;;;22.94;42.96
45888;BME280;31595;51.418;7.572;2023-04-21T10:37:20;100008.00;;;22.44;42.07
45888;BME280;31595;51.418;7.572;2023-04-21T10:39:52;100005.16;;;21.86;43.17
45888;BME280;31595;51.418;7.572;2023-04-21T10:42:25;100010.34;;;21.56;44.81
45888;BME280;31595;51.418;7.572;2023-04-21T10:45:04;99995.56;;;21.07;45.24
45888;BME280;31595;51.418;7.572;2023-04-21T10:47:35;99992.09;;;20.58;44.52
45888;BME280;31595;51.418;7.572;2023-04-21T10:50:14;99992.16;;;20.17;45.31
45888;BME280;31595;51.418;7.572;2023-04-21T10:52:47;99987.66;;;19.68;47.21
45888;BME280;31595;51.418;7.572;2023-04-21T10:55:17;99981.91;;;19.57;48.27
45888;BME280;31595;51.418;7.572;2023-04-21T10:57:45;99992.69;;;19.48;48.73
45888;BME280;31595;51.418;7.572;2023-04-21T11:00:19;99990.97;;;19.40;49.48
45888;BME280;31595;51.418;7.572;2023-04-21T11:02:59;99987.41;;;19.13;49.99
45888;BME280;31595;51.418;7.572;2023-04-21T11:05:32;99988.63;;;19.12;49.31
45888;BME280;31595;51.418;7.572;2023-04-21T11:08:08;99991.22;;;18.94;49.50
45888;BME280;31595;51.418;7.572;2023-04-21T11:10:53;99977.94;;;18.94;49.13
45888;BME280;31595;51.418;7.572;2023-04-21T11:13:22;99976.59;;;18.84;49.80
45888;BME280;31595;51.418;7.572;2023-04-21T11:15:59;99977.09;;;18.90;50.08
45888;BME280;31595;51.418;7.572;2023-04-21T11:18:36;99977.44;;;18.89;50.93
45888;BME280;31595;51.418;7.572;2023-04-21T11:21:08;99973.34;;;18.82;51.90
45888;BME280;31595;51.418;7.572;2023-04-21T11:23:38;99965.78;;;18.90;51.34
45888;BME280;31595;51.418;7.572;2023-04-21T11:26:06;99960.28;;;19.04;51.29
45888;BME280;31595;51.418;7.572;2023-04-21T11:28:34;99952.84;;;19.23;51.35
45888;BME280;31595;51.418;7.572;2023-04-21T11:31:02;99946.91;;;19.32;50.42
45888;BME280;31595;51.418;7.572;2023-04-21T11:33:34;99938.47;;;19.35;50.35
45888;BME280;31595;51.418;7.572;2023-04-21T11:36:03;99948.84;;;19.24;51.66
45888;BME280;31595;51.418;7.572;2023-04-21T11:38:36;99938.47;;;19.35;50.89
45888;BME280;31595;51.418;7.572;2023-04-21T11:41:04;99928.59;;;19.56;49.89
45888;BME280;31595;51.418;7.572;2023-04-21T11:43:31;99939.28;;;19.73;49.46
45888;BME280;31595;51.418;7.572;2023-04-21T11:46:17;99936.50;;;19.77;49.51
45888;BME280;31595;51.418;7.572;2023-04-21T11:48:45;99938.56;;;19.83;49.82
45888;BME280;31595;51.418;7.572;2023-04-21T11:51:16;99928.63;;;20.04;49.15
45888;BME280;31595;51.418;7.572;2023-04-21T11:53:46;99921.50;;;20.24;48.35
45888;BME280;31595;51.418;7.572;2023-04-21T11:56:16;99919.00;;;20.75;47.57
45888;BME280;31595;51.418;7.572;2023-04-21T11:58:45;99909.47;;;21.37;46.15
45888;BME280;31595;51.418;7.572;2023-04-21T12:01:15;99901.03;;;21.94;45.37
45888;BME280;31595;51.418;7.572;2023-04-21T12:03:50;99916.41;;;21.89;45.16
45888;BME280;31595;51.418;7.572;2023-04-21T12:06:21;99918.44;;;22.03;44.26
45888;BME280;31595;51.418;7.572;2023-04-21T12:08:54;99907.50;;;22.27;43.12
45888;BME280;31595;51.418;7.572;2023-04-21T12:11:22;99903.69;;;22.84;41.79
45888;BME280;31595;51.418;7.572;2023-04-21T12:13:49;99903.34;;;23.48;40.11
45888;BME280;31595;51.418;7.572;2023-04-21T12:16:19;99895.38;;;23.25;40.08
45888;BME280;31595;51.418;7.572;2023-04-21T12:18:47;99893.47;;;23.04;40.60
45888;BME280;31595;51.418;7.572;2023-04-21T12:21:15;99899.97;;;23.01;40.04
45888;BME280;31595;51.418;7.572;2023-04-21T12:23:42;99902.81;;;22.98;40.71
45888;BME280;31595;51.418;7.572;2023-04-21T12:26:10;99896.00;;;22.81;41.54
45888;BME280;31595;51.418;7.572;2023-04-21T12:28:38;99885.94;;;22.62;41.56
45888;BME280;31595;51.418;7.572;2023-04-21T12:31:05;99883.47;;;22.67;42.25
45888;BME280;31595;51.418;7.572;2023-04-21T12:33:34;99878.44;;;23.00;40.62
45888;BME280;31595;51.418;7.572;2023-04-21T12:36:01;99883.28;;;23.10;40.57
45888;BME280;31595;51.418;7.572;2023-04-21T12:38:28;99876.91;;;24.04;38.71
45888;BME280;31595;51.418;7.572;2023-04-21T12:40:56;99859.59;;;26.03;36.42
45888;BME280;31595;51.418;7.572;2023-04-21T12:43:23;99860.16;;;26.98;34.02
45888;BME280;31595;51.418;7.572;2023-04-21T12:45:51;99859.81;;;27.81;32.61
45888;BME280;31595;51.418;7.572;2023-04-21T12:48:18;99858.19;;;28.59;32.20
45888;BME280;31595;51.418;7.572;2023-04-21T12:50:47;99852.22;;;29.33;32.08
45888;BME280;31595;51.418;7.572;2023-04-21T12:53:14;99849.00;;;31.28;27.47
45888;BME280;31595;51.418;7.572;2023-04-21T12:55:41;99846.63;;;31.76;24.89
45888;BME280;31595;51.418;7.572;2023-04-21T12:58:08;99841.22;;;32.80;25.11
45888;BME280;31595;51.418;7.572;2023-04-21T13:00:37;99841.84;;;33.78;24.32